createdAt,value
2022-09-06T00:01:10.761Z,18.60
2022-09-06T00:03:41.305Z,18.60
2022-09-06T00:06:11.414Z,18.60
2022-09-06T00:08:40.036Z,18.70
2022-09-06T00:11:08.524Z,18.70
2022-09-06T00:13:37.536Z,18.70
2022-09-06T00:16:08.122Z,18.80
2022-09-06T00:18:37.029Z,18.80
2022-09-06T00:21:15.463Z,18.80
2022-09-06T00:23:43.770Z,18.80
2022-09-06T00:26:12.207Z,18.90
2022-09-06T00:28:44.716Z,18.80
2022-09-06T00:31:15.086Z,18.90
2022-09-06T00:33:43.544Z,18.90
2022-09-06T00:36:14.375Z,18.90
2022-09-06T00:38:43.748Z,18.90
2022-09-06T00:41:13.895Z,18.80
2022-09-06T00:43:42.884Z,18.80
2022-09-06T00:46:15.264Z,18.80
2022-09-06T00:48:45.868Z,18.80
2022-09-06T00:51:17.875Z,18.70
2022-09-06T00:53:46.319Z,18.70
2022-09-06T00:56:14.669Z,18.70
2022-09-06T00:58:44.112Z,18.70
2022-09-06T01:01:12.473Z,18.70
2022-09-06T01:03:41.335Z,18.70
2022-09-06T01:06:24.539Z,18.60
2022-09-06T01:09:02.106Z,18.60
2022-09-06T01:11:42.433Z,18.60
2022-09-06T01:14:20.187Z,18.60
2022-09-06T01:16:55.560Z,18.60
2022-09-06T01:19:56.669Z,18.50
2022-09-06T01:22:49.907Z,18.40
2022-09-06T01:25:34.685Z,18.60
2022-09-06T01:28:28.946Z,18.80
2022-09-06T01:31:06.497Z,19.00
2022-09-06T01:33:43.442Z,19.40
2022-09-06T01:36:16.602Z,19.60
2022-09-06T01:38:44.984Z,19.70
2022-09-06T01:41:13.719Z,19.90
2022-09-06T01:43:46.896Z,19.90
2022-09-06T01:46:21.545Z,20.00
2022-09-06T01:49:04.617Z,20.20
2022-09-06T01:51:39.128Z,20.30
2022-09-06T01:54:23.928Z,20.30
2022-09-06T01:57:03.125Z,20.10
2022-09-06T01:59:56.789Z,19.90
2022-09-06T02:02:34.361Z,19.70
2022-09-06T02:05:09.664Z,19.70
2022-09-06T02:07:42.911Z,19.60
2022-09-06T02:10:16.404Z,19.50
2022-09-06T02:12:48.679Z,19.40
2022-09-06T02:15:22.712Z,19.40
2022-09-06T02:18:00.189Z,19.30
2022-09-06T02:20:34.596Z,19.20
2022-09-06T02:23:10.249Z,19.20
2022-09-06T02:25:40.653Z,19.20
2022-09-06T02:28:10.182Z,19.20
2022-09-06T02:30:43.145Z,19.20
2022-09-06T02:33:16.276Z,19.20
2022-09-06T02:35:46.655Z,19.20
2022-09-06T02:38:15.518Z,19.20
2022-09-06T02:40:46.540Z,19.20
2022-09-06T02:43:14.570Z,19.20
2022-09-06T02:45:44.060Z,19.20
2022-09-06T02:48:12.334Z,19.20
2022-09-06T02:50:40.499Z,19.10
2022-09-06T02:53:10.303Z,19.10
2022-09-06T02:55:39.228Z,19.10
2022-09-06T02:58:10.005Z,19.10
2022-09-06T03:00:38.951Z,19.10
2022-09-06T03:03:08.611Z,19.00
2022-09-06T03:05:36.743Z,19.10
2022-09-06T03:08:05.006Z,19.10
2022-09-06T03:10:33.103Z,19.10
2022-09-06T03:13:01.687Z,19.00
2022-09-06T03:15:30.128Z,19.00
2022-09-06T03:18:01.286Z,18.90
2022-09-06T03:20:35.029Z,18.90
2022-09-06T03:23:05.449Z,18.90
2022-09-06T03:25:33.882Z,18.80
2022-09-06T03:28:04.017Z,18.80
2022-09-06T03:30:32.616Z,18.70
2022-09-06T03:33:03.182Z,18.60
2022-09-06T03:35:32.792Z,18.60
2022-09-06T03:38:01.097Z,18.50
2022-09-06T03:40:29.343Z,18.40
2022-09-06T03:42:57.753Z,18.30
2022-09-06T03:45:25.750Z,18.20
2022-09-06T03:47:54.024Z,18.20
2022-09-06T03:50:23.339Z,18.20
2022-09-06T03:52:56.661Z,18.10
2022-09-06T03:55:24.940Z,18.10
2022-09-06T03:57:53.368Z,18.00
2022-09-06T04:00:21.890Z,17.90
2022-09-06T04:02:50.004Z,17.80
2022-09-06T04:05:18.316Z,17.70
2022-09-06T04:07:47.350Z,17.60
2022-09-06T04:10:17.283Z,17.50
2022-09-06T04:12:50.130Z,17.40
2022-09-06T04:15:18.351Z,17.40
2022-09-06T04:17:46.744Z,17.40
2022-09-06T04:20:15.722Z,17.30
2022-09-06T04:22:44.018Z,17.20
2022-09-06T04:25:13.765Z,17.20
2022-09-06T04:27:43.119Z,17.10
2022-09-06T04:30:12.105Z,17.10
2022-09-06T04:32:40.420Z,17.00
2022-09-06T04:35:09.495Z,17.00
2022-09-06T04:37:37.473Z,17.00
2022-09-06T04:40:06.344Z,16.90
2022-09-06T04:42:34.593Z,16.90
2022-09-06T04:45:04.422Z,16.90
2022-09-06T04:47:33.164Z,16.80
2022-09-06T04:50:05.069Z,16.80
2022-09-06T04:52:33.389Z,16.80
2022-09-06T04:55:01.672Z,16.80
2022-09-06T04:57:29.924Z,16.70
2022-09-06T04:59:58.083Z,16.70
2022-09-06T05:02:27.716Z,16.60
2022-09-06T05:04:57.208Z,16.60
2022-09-06T05:07:25.260Z,16.60
2022-09-06T05:09:56.703Z,16.60
2022-09-06T05:12:24.960Z,16.60
2022-09-06T05:14:52.910Z,16.60
2022-09-06T05:17:20.887Z,16.60
2022-09-06T05:19:50.300Z,16.60
2022-09-06T05:22:18.320Z,16.70
2022-09-06T05:24:46.620Z,16.60
2022-09-06T05:27:14.628Z,16.70
2022-09-06T05:29:42.987Z,16.70
2022-09-06T05:32:11.171Z,16.70
2022-09-06T05:34:42.328Z,16.80
2022-09-06T05:37:12.309Z,16.90
2022-09-06T05:39:41.208Z,16.90
2022-09-06T05:42:09.717Z,16.90
2022-09-06T05:44:38.619Z,17.00
2022-09-06T05:47:07.743Z,17.00
2022-09-06T05:49:35.825Z,17.10
2022-09-06T05:52:04.220Z,17.10
2022-09-06T05:54:34.008Z,17.20
2022-09-06T05:57:02.428Z,17.20
2022-09-06T05:59:30.701Z,17.20
2022-09-06T06:01:59.148Z,17.30
2022-09-06T06:04:27.517Z,17.30
2022-09-06T06:06:55.612Z,17.30
2022-09-06T06:09:23.921Z,17.40
2022-09-06T06:11:54.276Z,17.50
2022-09-06T06:14:22.502Z,17.50
2022-09-06T06:16:52.413Z,17.50
2022-09-06T06:19:24.527Z,17.50
2022-09-06T06:21:52.652Z,17.60
2022-09-06T06:24:21.137Z,17.70
2022-09-06T06:26:49.544Z,17.70
2022-09-06T06:29:19.635Z,17.70
2022-09-06T06:31:47.842Z,17.80
2022-09-06T06:34:16.607Z,17.90
2022-09-06T06:36:44.843Z,18.00
2022-09-06T06:39:15.595Z,18.20
2022-09-06T06:41:43.860Z,18.30
2022-09-06T06:44:13.630Z,18.60
2022-09-06T06:46:43.916Z,18.70
2022-09-06T06:49:15.339Z,18.80
2022-09-06T06:51:43.515Z,18.90
2022-09-06T06:54:11.470Z,19.00
2022-09-06T06:56:42.304Z,19.00
2022-09-06T06:59:10.613Z,19.10
2022-09-06T07:01:39.517Z,19.20
2022-09-06T07:04:10.530Z,19.20
2022-09-06T07:12:29.469Z,19.50
2022-09-06T07:14:57.719Z,19.60
2022-09-06T07:17:25.919Z,19.60
2022-09-06T07:22:43.819Z,19.80
2022-09-06T07:25:14.440Z,20.00
2022-09-06T07:30:19.626Z,20.10
2022-09-06T07:32:47.771Z,20.30
2022-09-06T07:35:20.402Z,20.30
2022-09-06T07:37:55.594Z,20.30
2022-09-06T07:40:24.075Z,20.40
2022-09-06T07:42:56.011Z,20.50
2022-09-06T07:45:23.952Z,20.60
2022-09-06T07:50:51.126Z,20.60
2022-09-06T07:53:29.259Z,20.70
2022-09-06T07:56:00.431Z,20.80
2022-09-06T07:58:29.447Z,21.00
2022-09-06T08:01:16.492Z,21.10
2022-09-06T08:03:45.159Z,21.30
2022-09-06T08:06:18.696Z,21.10
2022-09-06T08:09:01.925Z,21.00
2022-09-06T08:11:32.080Z,21.00
2022-09-06T08:14:05.250Z,21.00
2022-09-06T08:16:34.952Z,20.90
2022-09-06T08:19:05.290Z,20.90
2022-09-06T08:21:35.273Z,21.00
2022-09-06T08:24:05.867Z,21.10
2022-09-06T08:26:36.207Z,21.10
2022-09-06T08:29:09.236Z,21.30
2022-09-06T08:31:39.681Z,21.40
2022-09-06T08:34:08.230Z,21.60
2022-09-06T08:36:38.200Z,21.70
2022-09-06T08:39:09.103Z,21.70
2022-09-06T08:41:47.736Z,21.70
2022-09-06T08:47:10.360Z,21.90
2022-09-06T08:49:41.444Z,21.90
2022-09-06T08:52:49.541Z,22.00
2022-09-06T08:55:34.257Z,22.10
2022-09-06T08:58:16.233Z,22.10
2022-09-06T09:00:51.143Z,22.40
2022-09-06T09:03:21.622Z,22.50
2022-09-06T09:05:53.733Z,22.70
2022-09-06T09:08:27.331Z,22.70
2022-09-06T09:11:01.489Z,22.80
2022-09-06T09:13:35.987Z,22.90
2022-09-06T09:16:05.164Z,23.10
2022-09-06T09:18:36.563Z,23.20
2022-09-06T09:23:42.008Z,23.60
2022-09-06T09:26:15.709Z,23.60
2022-09-06T09:29:09.019Z,23.70
2022-09-06T09:31:40.723Z,23.70
2022-09-06T09:34:15.058Z,23.90
2022-09-06T09:39:39.472Z,24.20
2022-09-06T09:42:09.262Z,24.40
2022-09-06T09:44:43.843Z,24.40
2022-09-06T09:47:25.713Z,24.20
2022-09-06T09:49:53.931Z,24.40
2022-09-06T09:52:28.418Z,24.70
2022-09-06T09:55:02.350Z,24.90
2022-09-06T09:57:33.047Z,24.90
2022-09-06T10:00:02.146Z,24.90
2022-09-06T10:02:35.833Z,25.00
2022-09-06T10:05:07.884Z,25.20
2022-09-06T10:07:42.921Z,25.00
2022-09-06T10:10:16.123Z,24.90
2022-09-06T10:12:45.156Z,25.00
2022-09-06T10:15:33.553Z,25.30
2022-09-06T10:18:01.911Z,25.40
2022-09-06T10:20:36.400Z,25.70
2022-09-06T10:23:11.745Z,25.80
2022-09-06T10:25:49.969Z,25.90
2022-09-06T10:28:41.906Z,26.00
2022-09-06T10:31:36.762Z,26.00
2022-09-06T10:34:19.939Z,26.30
2022-09-06T10:37:00.919Z,26.30
2022-09-06T10:39:53.225Z,26.50
2022-09-06T10:42:33.957Z,26.50
2022-09-06T10:50:45.587Z,26.70
2022-09-06T10:53:20.612Z,26.90
2022-09-06T10:55:53.941Z,27.00
2022-09-06T11:01:28.512Z,27.10
2022-09-06T11:04:04.470Z,27.30
2022-09-06T11:06:44.975Z,27.60
2022-09-06T11:09:19.453Z,27.60
2022-09-06T11:11:55.088Z,27.80
2022-09-06T11:14:30.440Z,27.80
2022-09-06T11:17:06.259Z,27.80
2022-09-06T11:19:45.282Z,27.90
2022-09-06T11:22:53.936Z,28.00
2022-09-06T11:25:36.149Z,28.30
2022-09-06T11:28:09.812Z,28.50
2022-09-06T11:30:44.439Z,28.10
2022-09-06T11:33:25.102Z,28.00
2022-09-06T11:36:15.907Z,28.00
2022-09-06T11:38:44.263Z,28.30
2022-09-06T11:41:17.311Z,28.40
2022-09-06T11:43:49.176Z,28.60
2022-09-06T11:47:00.260Z,28.70
2022-09-06T11:49:39.395Z,28.80
2022-09-06T11:52:59.845Z,28.90
2022-09-06T11:55:38.952Z,29.10
2022-09-06T11:58:13.809Z,29.40
2022-09-06T12:00:42.105Z,29.60
2022-09-06T12:06:20.602Z,29.60
2022-09-06T12:08:50.146Z,29.50
2022-09-06T12:11:44.054Z,29.60
2022-09-06T12:14:32.452Z,29.80
2022-09-06T12:17:30.432Z,30.00
2022-09-06T12:20:06.533Z,30.10
2022-09-06T12:22:56.057Z,30.40
2022-09-06T12:25:53.253Z,30.60
2022-09-06T12:28:34.949Z,30.80
2022-09-06T12:31:25.331Z,30.90
2022-09-06T12:33:54.875Z,31.20
2022-09-06T12:36:29.964Z,31.20
2022-09-06T12:39:06.532Z,31.40
2022-09-06T12:41:43.654Z,31.00
2022-09-06T12:44:15.476Z,31.00
2022-09-06T12:46:50.463Z,31.30
2022-09-06T12:49:22.397Z,31.20
2022-09-06T12:51:50.609Z,31.30
2022-09-06T12:54:26.322Z,31.10
2022-09-06T12:56:55.981Z,31.00
2022-09-06T12:59:28.530Z,31.30
2022-09-06T13:02:02.024Z,31.70
2022-09-06T13:04:36.632Z,31.90
2022-09-06T13:07:07.124Z,31.70
2022-09-06T13:09:41.467Z,31.50
2022-09-06T13:12:21.608Z,31.10
2022-09-06T13:14:54.034Z,30.90
2022-09-06T13:17:26.888Z,30.70
2022-09-06T13:19:55.619Z,30.60
2022-09-06T13:22:41.668Z,30.30
2022-09-06T13:25:20.801Z,30.20
2022-09-06T13:27:52.301Z,29.90
2022-09-06T13:30:37.274Z,29.70
2022-09-06T13:33:06.871Z,29.30
2022-09-06T13:35:37.185Z,28.90
2022-09-06T13:38:33.640Z,29.20
2022-09-06T13:41:13.754Z,29.50
2022-09-06T13:43:48.660Z,29.80
2022-09-06T13:46:17.136Z,29.80
2022-09-06T13:48:45.514Z,29.80
2022-09-06T13:51:14.369Z,30.00
2022-09-06T13:53:42.962Z,30.30
2022-09-06T13:56:13.419Z,30.50
2022-09-06T13:58:41.770Z,30.70
2022-09-06T14:01:14.534Z,31.00
2022-09-06T14:03:43.543Z,30.80
2022-09-06T14:06:12.528Z,30.20
2022-09-06T14:09:05.757Z,29.70
2022-09-06T14:11:31.138Z,29.40
2022-09-06T14:14:08.788Z,28.80
2022-09-06T14:16:39.306Z,28.50
2022-09-06T14:19:10.068Z,29.10
2022-09-06T14:21:39.616Z,29.50
2022-09-06T14:24:10.252Z,30.20
2022-09-06T14:26:44.068Z,30.70
2022-09-06T14:29:17.785Z,30.90
2022-09-06T14:31:50.540Z,30.80
2022-09-06T14:34:18.473Z,30.60
2022-09-06T14:36:46.436Z,30.20
2022-09-06T14:39:15.416Z,29.80
2022-09-06T14:41:46.655Z,29.30
2022-09-06T14:44:16.074Z,29.00
2022-09-06T14:46:44.443Z,28.80
2022-09-06T14:49:13.584Z,28.70
2022-09-06T14:51:43.633Z,28.50
2022-09-06T14:54:13.793Z,28.30
2022-09-06T14:56:45.978Z,28.10
2022-09-06T14:59:14.593Z,28.00
2022-09-06T15:01:47.261Z,28.10
2022-09-06T15:04:18.824Z,28.60
2022-09-06T15:06:49.244Z,28.50
2022-09-06T15:09:18.520Z,28.30
2022-09-06T15:11:52.884Z,28.00
2022-09-06T15:14:23.402Z,27.70
2022-09-06T15:16:56.945Z,27.70
2022-09-06T15:19:26.968Z,27.80
2022-09-06T15:21:58.318Z,28.20
2022-09-06T15:24:29.727Z,28.00
2022-09-06T15:26:59.864Z,28.60
2022-09-06T15:29:28.506Z,28.30
2022-09-06T15:31:58.140Z,27.90
2022-09-06T15:34:30.920Z,27.60
2022-09-06T15:37:00.615Z,27.50
2022-09-06T15:39:31.490Z,27.40
2022-09-06T15:42:01.578Z,27.40
2022-09-06T15:44:30.240Z,27.90
2022-09-06T15:46:59.464Z,28.60
2022-09-06T15:49:29.609Z,28.70
2022-09-06T15:51:59.399Z,28.70
2022-09-06T15:54:43.319Z,28.70
2022-09-06T15:57:13.870Z,28.30
2022-09-06T15:59:42.495Z,28.10
2022-09-06T16:02:11.394Z,27.80
2022-09-06T16:04:39.655Z,27.60
2022-09-06T16:07:08.553Z,27.80
2022-09-06T16:09:37.404Z,27.70
2022-09-06T16:12:07.744Z,27.50
2022-09-06T16:14:38.739Z,27.40
2022-09-06T16:17:06.924Z,27.30
2022-09-06T16:19:35.837Z,27.30
2022-09-06T16:22:04.346Z,27.10
2022-09-06T16:24:35.492Z,27.00
2022-09-06T16:27:03.552Z,26.90
2022-09-06T16:29:31.993Z,26.80
2022-09-06T16:32:06.171Z,26.70
2022-09-06T16:34:34.584Z,26.70
2022-09-06T16:37:07.771Z,26.40
2022-09-06T16:39:36.298Z,26.30
2022-09-06T16:42:08.043Z,26.30
2022-09-06T16:44:38.200Z,26.00
2022-09-06T16:47:14.679Z,25.80
2022-09-06T16:49:44.745Z,25.60
2022-09-06T16:52:15.108Z,25.50
2022-09-06T16:54:43.483Z,25.40
2022-09-06T16:57:11.739Z,25.40
2022-09-06T16:59:43.546Z,25.30
2022-09-06T17:02:14.007Z,25.30
2022-09-06T17:04:42.618Z,25.40
2022-09-06T17:07:11.965Z,25.20
2022-09-06T17:09:40.196Z,25.10
2022-09-06T17:12:09.472Z,24.90
2022-09-06T17:14:37.960Z,24.90
2022-09-06T17:17:05.417Z,24.90
2022-09-06T17:19:38.242Z,24.90
2022-09-06T17:22:12.775Z,24.90
2022-09-06T17:24:42.743Z,25.00
2022-09-06T17:27:11.412Z,25.00
2022-09-06T17:29:42.082Z,25.00
2022-09-06T17:32:13.137Z,24.90
2022-09-06T17:34:42.544Z,24.90
2022-09-06T17:37:10.712Z,24.80
2022-09-06T17:39:40.366Z,24.70
2022-09-06T17:42:08.944Z,24.60
2022-09-06T17:44:37.475Z,24.60
2022-09-06T17:47:12.970Z,24.50
2022-09-06T17:49:44.005Z,24.40
2022-09-06T17:52:13.688Z,24.40
2022-09-06T17:54:41.998Z,24.30
2022-09-06T17:57:16.826Z,24.20
2022-09-06T17:59:45.690Z,24.10
2022-09-06T18:02:16.037Z,24.10
2022-09-06T18:04:47.043Z,23.90
2022-09-06T18:07:15.190Z,23.90
2022-09-06T18:09:43.266Z,23.80
2022-09-06T18:12:11.925Z,23.70
2022-09-06T18:14:41.338Z,23.60
2022-09-06T18:17:10.740Z,23.50
2022-09-06T18:19:39.531Z,23.50
2022-09-06T18:22:09.269Z,23.40
2022-09-06T18:24:38.452Z,23.40
2022-09-06T18:27:06.883Z,23.30
2022-09-06T18:29:37.633Z,23.20
2022-09-06T18:32:11.361Z,23.10
2022-09-06T18:34:39.550Z,23.10
2022-09-06T18:37:09.178Z,23.00
2022-09-06T18:39:37.346Z,22.90
2022-09-06T18:42:13.381Z,22.80
2022-09-06T18:44:42.117Z,22.80
2022-09-06T18:47:12.222Z,22.70
2022-09-06T18:49:43.965Z,22.60
2022-09-06T18:52:14.698Z,22.60
2022-09-06T18:54:43.699Z,22.50
2022-09-06T18:57:13.443Z,22.50
2022-09-06T18:59:42.594Z,22.40
2022-09-06T19:02:10.853Z,22.30
2022-09-06T19:04:39.740Z,22.30
2022-09-06T19:07:08.515Z,22.20
2022-09-06T19:09:38.582Z,22.20
2022-09-06T19:12:07.386Z,22.10
2022-09-06T19:14:39.875Z,22.10
2022-09-06T19:17:09.516Z,22.10
2022-09-06T19:19:40.613Z,22.00
2022-09-06T19:22:09.019Z,22.00
2022-09-06T19:24:40.178Z,21.90
2022-09-06T19:27:12.542Z,21.90
2022-09-06T19:29:41.033Z,21.80
2022-09-06T19:32:09.227Z,21.60
2022-09-06T19:34:38.984Z,21.60
2022-09-06T19:37:07.262Z,21.50
2022-09-06T19:39:37.276Z,21.50
2022-09-06T19:42:07.456Z,21.40
2022-09-06T19:44:37.697Z,21.40
2022-09-06T19:47:06.300Z,21.40
2022-09-06T19:49:39.657Z,21.40
2022-09-06T19:52:10.582Z,21.40
2022-09-06T19:54:39.472Z,21.30
2022-09-06T19:57:11.482Z,21.20
2022-09-06T19:59:42.544Z,21.20
2022-09-06T20:02:10.944Z,21.20
2022-09-06T20:04:39.316Z,21.20
2022-09-06T20:07:07.414Z,21.20
2022-09-06T20:09:35.732Z,21.20
2022-09-06T20:12:04.786Z,21.20
2022-09-06T20:14:35.484Z,21.10
2022-09-06T20:17:29.575Z,21.00
2022-09-06T20:19:51.669Z,20.90
2022-09-06T20:22:19.689Z,20.80
2022-09-06T20:24:48.447Z,20.80
2022-09-06T20:27:19.369Z,20.70
2022-09-06T20:29:48.842Z,20.70
2022-09-06T20:32:19.244Z,20.60
2022-09-06T20:34:51.388Z,20.50
2022-09-06T20:37:20.154Z,20.50
2022-09-06T20:39:48.645Z,20.30
2022-09-06T20:42:17.657Z,20.30
2022-09-06T20:44:45.933Z,20.20
2022-09-06T20:47:17.172Z,20.10
2022-09-06T20:49:45.900Z,20.10
2022-09-06T20:52:14.017Z,20.00
2022-09-06T20:54:44.198Z,20.00
2022-09-06T20:57:13.638Z,19.90
2022-09-06T20:59:41.744Z,19.90
2022-09-06T21:02:09.804Z,19.90
2022-09-06T21:04:41.019Z,19.90
2022-09-06T21:07:12.135Z,19.90
2022-09-06T21:09:41.472Z,19.80
2022-09-06T21:12:09.577Z,19.80
2022-09-06T21:14:37.669Z,19.80
2022-09-06T21:17:08.731Z,19.70
2022-09-06T21:19:39.471Z,19.70
2022-09-06T21:22:07.692Z,19.70
2022-09-06T21:24:36.358Z,19.60
2022-09-06T21:27:05.034Z,19.60
2022-09-06T21:29:33.435Z,19.60
2022-09-06T21:32:01.865Z,19.60
2022-09-06T21:34:32.649Z,19.50
2022-09-06T21:37:02.475Z,19.40
2022-09-06T21:39:34.114Z,19.30
2022-09-06T21:42:03.240Z,19.30
2022-09-06T21:44:31.542Z,19.30
2022-09-06T21:47:00.508Z,19.20
2022-09-06T21:49:30.978Z,19.20
2022-09-06T21:51:59.102Z,19.20
2022-09-06T21:54:29.245Z,19.10
2022-09-06T21:56:58.669Z,19.00
2022-09-06T21:59:26.756Z,19.00
2022-09-06T22:01:57.555Z,19.00
2022-09-06T22:04:26.236Z,19.00
2022-09-06T22:06:54.783Z,19.00
2022-09-06T22:09:23.065Z,19.00
2022-09-06T22:11:57.207Z,18.90
2022-09-06T22:14:25.346Z,19.00
2022-09-06T22:16:57.697Z,19.00
2022-09-06T22:19:25.952Z,19.00
2022-09-06T22:21:54.838Z,19.00
2022-09-06T22:24:23.602Z,19.00
2022-09-06T22:26:53.914Z,19.10
2022-09-06T22:29:27.540Z,19.10
2022-09-06T22:31:59.210Z,19.10
2022-09-06T22:34:27.963Z,19.10
2022-09-06T22:36:56.137Z,19.20
2022-09-06T22:39:24.160Z,19.20
2022-09-06T22:41:54.192Z,19.20
2022-09-06T22:44:22.375Z,19.20
2022-09-06T22:46:50.906Z,19.10
2022-09-06T22:49:19.435Z,19.00
2022-09-06T22:51:48.119Z,18.90
2022-09-06T22:54:17.305Z,19.00
2022-09-06T22:56:45.871Z,18.90
2022-09-06T22:59:15.308Z,18.80
2022-09-06T23:01:43.678Z,18.80
2022-09-06T23:04:12.342Z,18.70
2022-09-06T23:06:42.862Z,18.60
2022-09-06T23:09:11.715Z,18.60
2022-09-06T23:11:40.131Z,18.60
2022-09-06T23:14:08.737Z,18.60
2022-09-06T23:16:41.182Z,18.60
2022-09-06T23:19:10.831Z,18.70
2022-09-06T23:21:39.125Z,18.70
2022-09-06T23:24:08.496Z,18.70
2022-09-06T23:26:38.033Z,18.60
2022-09-06T23:29:08.630Z,18.70
2022-09-06T23:31:38.131Z,18.70
2022-09-06T23:34:06.726Z,18.80
2022-09-06T23:36:34.924Z,18.70
2022-09-06T23:39:03.182Z,18.70
2022-09-06T23:41:31.903Z,18.80
2022-09-06T23:44:00.915Z,18.70
2022-09-06T23:46:29.109Z,18.80
2022-09-06T23:48:58.993Z,18.70
2022-09-06T23:51:27.139Z,18.80
2022-09-06T23:53:55.372Z,18.70
2022-09-06T23:56:23.649Z,18.70
2022-09-06T23:58:51.722Z,18.70
